createdAt,value
2018-08-23T00:01:27.255Z,7.87
2018-08-23T00:03:57.608Z,7.43
2018-08-23T00:06:25.795Z,7.70
2018-08-23T00:08:54.147Z,7.60
2018-08-23T00:11:24.850Z,8.00
2018-08-23T00:13:53.425Z,7.45
2018-08-23T00:16:46.653Z,7.28
2018-08-23T00:19:15.746Z,7.43
2018-08-23T00:21:51.437Z,7.63
2018-08-23T00:24:21.866Z,7.67
2018-08-23T00:26:52.760Z,7.47
2018-08-23T00:29:28.124Z,7.93
2018-08-23T00:34:46.930Z,7.50
2018-08-23T00:37:15.071Z,7.83
2018-08-23T00:39:44.529Z,8.03
2018-08-23T00:42:12.980Z,7.33
2018-08-23T00:45:02.456Z,7.83
2018-08-23T00:47:34.287Z,9.50
2018-08-23T00:50:07.565Z,8.63
2018-08-23T00:52:42.244Z,7.77
2018-08-23T00:55:30.117Z,7.77
2018-08-23T00:57:58.260Z,8.13
2018-08-23T01:00:28.806Z,7.87
2018-08-23T01:03:03.581Z,7.63
2018-08-23T01:05:37.779Z,8.10
2018-08-23T01:08:06.694Z,8.10
2018-08-23T01:10:35.730Z,8.13
2018-08-23T01:13:04.093Z,7.60
2018-08-23T01:15:32.819Z,7.87
2018-08-23T01:18:14.565Z,7.30
2018-08-23T01:20:44.334Z,7.70
2018-08-23T01:23:12.540Z,7.20
2018-08-23T01:25:43.465Z,8.10
2018-08-23T01:28:13.339Z,7.85
2018-08-23T01:30:41.831Z,7.67
2018-08-23T01:33:12.384Z,7.80
2018-08-23T01:35:41.538Z,7.35
2018-08-23T01:38:10.283Z,8.33
2018-08-23T01:40:38.640Z,7.77
2018-08-23T01:43:07.771Z,7.80
2018-08-23T01:45:37.091Z,7.27
2018-08-23T01:48:06.646Z,7.23
2018-08-23T01:50:34.961Z,8.27
2018-08-23T01:53:04.704Z,7.53
2018-08-23T01:55:32.868Z,7.53
2018-08-23T01:58:01.022Z,7.90
2018-08-23T02:00:31.344Z,7.30
2018-08-23T02:03:01.740Z,7.80
2018-08-23T02:05:29.874Z,6.80
2018-08-23T02:07:58.040Z,8.03
2018-08-23T02:10:26.139Z,8.00
2018-08-23T02:12:55.464Z,7.30
2018-08-23T02:15:23.855Z,7.65
2018-08-23T02:17:53.086Z,7.12
2018-08-23T02:20:21.798Z,6.70
2018-08-23T02:22:50.039Z,7.80
2018-08-23T02:25:18.175Z,7.72
2018-08-23T02:28:09.802Z,7.60
2018-08-23T02:30:46.935Z,7.40
2018-08-23T02:33:15.778Z,7.90
2018-08-23T02:35:56.566Z,8.28
2018-08-23T02:38:26.868Z,7.63
2018-08-23T02:40:55.483Z,7.60
2018-08-23T02:43:25.847Z,8.13
2018-08-23T02:45:54.696Z,8.10
2018-08-23T02:48:23.762Z,8.03
2018-08-23T02:50:52.658Z,7.67
2018-08-23T02:53:38.150Z,6.45
2018-08-23T02:56:08.230Z,7.53
2018-08-23T02:59:07.939Z,8.80
2018-08-23T03:01:40.276Z,8.43
2018-08-23T03:04:12.384Z,8.60
2018-08-23T03:07:12.920Z,7.90
2018-08-23T03:09:45.573Z,8.47
2018-08-23T03:12:17.305Z,8.43
2018-08-23T03:14:45.502Z,9.03
2018-08-23T03:17:21.296Z,8.40
2018-08-23T03:20:05.367Z,8.47
2018-08-23T03:22:34.352Z,7.67
2018-08-23T03:25:07.965Z,8.43
2018-08-23T03:27:37.546Z,8.63
2018-08-23T03:30:07.522Z,9.10
2018-08-23T03:32:37.246Z,8.63
2018-08-23T03:35:05.581Z,8.90
2018-08-23T03:37:34.411Z,8.57
2018-08-23T03:40:03.411Z,8.80
2018-08-23T03:42:33.672Z,8.63
2018-08-23T03:45:01.865Z,8.60
2018-08-23T03:47:40.622Z,8.20
2018-08-23T03:50:09.965Z,9.37
2018-08-23T03:52:39.457Z,9.08
2018-08-23T03:55:10.555Z,9.15
2018-08-23T03:57:44.067Z,9.80
2018-08-23T04:00:12.239Z,9.30
2018-08-23T04:02:40.512Z,9.75
2018-08-23T04:05:14.201Z,9.23
2018-08-23T04:07:44.497Z,9.70
2018-08-23T04:10:13.951Z,9.13
2018-08-23T04:12:44.272Z,9.50
2018-08-23T04:15:22.513Z,9.53
2018-08-23T04:17:51.860Z,9.80
2018-08-23T04:20:20.025Z,9.07
2018-08-23T04:22:48.147Z,9.87
2018-08-23T04:25:16.500Z,9.77
2018-08-23T04:27:47.827Z,10.38
2018-08-23T04:30:15.945Z,10.63
2018-08-23T04:32:46.659Z,11.63
2018-08-23T04:35:19.260Z,9.60
2018-08-23T04:37:48.852Z,12.23
2018-08-23T04:40:17.874Z,10.10
2018-08-23T04:42:46.029Z,10.82
2018-08-23T04:45:23.281Z,14.23
2018-08-23T04:47:54.850Z,13.43
2018-08-23T04:50:26.538Z,15.53
2018-08-23T04:52:55.018Z,12.35
2018-08-23T04:55:23.655Z,11.80
2018-08-23T04:57:53.440Z,13.23
2018-08-23T05:00:21.642Z,12.68
2018-08-23T05:02:49.807Z,14.30
2018-08-23T05:05:17.916Z,15.17
2018-08-23T05:07:46.091Z,15.23
2018-08-23T05:10:14.463Z,15.07
2018-08-23T05:12:43.065Z,17.17
2018-08-23T05:15:15.695Z,18.57
2018-08-23T05:17:44.054Z,17.37
2018-08-23T05:20:12.151Z,17.13
2018-08-23T05:22:46.576Z,18.10
2018-08-23T05:25:15.641Z,18.25
2018-08-23T05:28:01.445Z,17.57
2018-08-23T05:30:30.002Z,17.73
2018-08-23T05:33:03.502Z,19.20
2018-08-23T05:35:32.044Z,16.93
2018-08-23T05:38:01.144Z,20.87
2018-08-23T05:40:33.602Z,19.50
2018-08-23T05:43:03.204Z,19.80
2018-08-23T05:45:38.051Z,18.07
2018-08-23T05:48:16.370Z,19.03
2018-08-23T05:50:44.516Z,19.45
2018-08-23T05:53:14.193Z,19.50
2018-08-23T05:55:42.728Z,19.27
2018-08-23T05:58:16.260Z,20.15
2018-08-23T06:00:44.786Z,19.35
2018-08-23T06:03:13.905Z,20.40
2018-08-23T06:05:41.981Z,20.57
2018-08-23T06:08:10.292Z,18.92
2018-08-23T06:10:38.882Z,19.13
2018-08-23T06:13:07.027Z,22.23
2018-08-23T06:15:39.328Z,21.73
2018-08-23T06:18:09.314Z,21.10
2018-08-23T06:20:46.200Z,23.30
2018-08-23T06:26:55.445Z,24.33
2018-08-23T06:29:31.935Z,22.80
2018-08-23T06:32:10.463Z,23.90
2018-08-23T06:34:59.524Z,22.67
2018-08-23T06:37:27.715Z,23.47
2018-08-23T06:39:56.464Z,22.70
2018-08-23T06:42:42.599Z,23.15
2018-08-23T06:45:10.644Z,21.67
2018-08-23T06:47:42.795Z,20.80
2018-08-23T06:50:11.854Z,20.20
2018-08-23T06:52:46.004Z,20.53
2018-08-23T06:55:21.576Z,21.33
2018-08-23T06:57:54.507Z,21.30
2018-08-23T07:00:27.505Z,21.77
2018-08-23T07:02:56.907Z,21.45
2018-08-23T07:05:25.065Z,21.35
2018-08-23T07:07:55.778Z,22.00
2018-08-23T07:10:24.192Z,23.05
2018-08-23T07:12:53.256Z,23.27
2018-08-23T07:15:21.636Z,23.00
2018-08-23T07:17:50.346Z,19.77
2018-08-23T07:20:18.402Z,22.80
2018-08-23T07:22:47.167Z,20.20
2018-08-23T07:25:17.839Z,19.13
2018-08-23T07:27:47.231Z,21.27
2018-08-23T07:30:18.025Z,20.87
2018-08-23T07:32:47.726Z,17.90
2018-08-23T07:35:17.213Z,17.33
2018-08-23T07:37:47.679Z,18.85
2018-08-23T07:40:17.456Z,16.57
2018-08-23T07:42:46.797Z,18.00
2018-08-23T07:45:15.567Z,20.02
2018-08-23T07:47:47.030Z,17.50
2018-08-23T07:50:15.363Z,17.27
2018-08-23T07:52:45.599Z,16.70
2018-08-23T07:55:13.651Z,19.73
2018-08-23T07:57:42.191Z,19.03
2018-08-23T08:00:29.904Z,16.77
2018-08-23T08:02:58.299Z,18.53
2018-08-23T08:05:34.955Z,20.63
2018-08-23T08:08:05.480Z,18.67
2018-08-23T08:10:35.952Z,18.03
2018-08-23T08:13:04.094Z,19.60
2018-08-23T08:15:32.258Z,16.33
2018-08-23T08:18:09.657Z,15.83
2018-08-23T08:20:37.800Z,18.77
2018-08-23T08:23:05.941Z,19.80
2018-08-23T08:25:34.096Z,18.90
2018-08-23T08:28:03.992Z,19.43
2018-08-23T08:30:41.103Z,16.47
2018-08-23T08:33:11.445Z,17.23
2018-08-23T08:35:43.873Z,16.33
2018-08-23T08:38:12.297Z,16.07
2018-08-23T08:40:40.631Z,17.03
2018-08-23T08:43:09.582Z,16.03
2018-08-23T08:45:37.895Z,17.73
2018-08-23T08:48:21.288Z,16.57
2018-08-23T08:51:12.583Z,16.23
2018-08-23T08:53:40.802Z,17.90
2018-08-23T08:56:11.452Z,19.04
2018-08-23T08:58:40.446Z,17.17
2018-08-23T09:01:08.686Z,17.57
2018-08-23T09:03:38.807Z,17.13
2018-08-23T09:06:09.213Z,17.40
2018-08-23T09:08:39.497Z,18.10
2018-08-23T09:11:07.952Z,19.20
2018-08-23T09:13:43.065Z,16.40
2018-08-23T09:16:11.936Z,15.70
2018-08-23T09:18:43.138Z,15.37
2018-08-23T09:21:12.002Z,16.40
2018-08-23T09:23:40.266Z,16.70
2018-08-23T09:26:09.543Z,15.80
2018-08-23T09:28:37.652Z,14.07
2018-08-23T09:31:07.242Z,17.30
2018-08-23T09:33:35.462Z,16.20
2018-08-23T09:36:03.703Z,15.37
2018-08-23T09:38:32.437Z,15.93
2018-08-23T09:41:01.376Z,15.53
2018-08-23T09:43:29.632Z,12.37
2018-08-23T09:45:57.761Z,16.33
2018-08-23T09:48:25.888Z,14.43
2018-08-23T09:50:54.679Z,14.38
2018-08-23T09:53:23.687Z,11.78
2018-08-23T09:55:52.378Z,14.23
2018-08-23T09:58:25.835Z,14.17
2018-08-23T10:00:59.775Z,15.50
2018-08-23T10:03:34.393Z,14.83
2018-08-23T10:06:08.546Z,12.63
2018-08-23T10:10:47.072Z,10.33
2018-08-23T10:13:21.290Z,13.86
2018-08-23T10:15:54.848Z,11.00
2018-08-23T10:18:28.503Z,10.85
2018-08-23T10:21:00.013Z,9.73
2018-08-23T10:23:28.151Z,9.87
2018-08-23T10:26:04.434Z,10.60
2018-08-23T10:28:37.903Z,11.53
2018-08-23T10:31:06.226Z,11.30
2018-08-23T10:33:34.376Z,10.90
2018-08-23T10:36:02.577Z,11.90
2018-08-23T10:38:30.759Z,12.47
2018-08-23T10:41:03.904Z,10.00
2018-08-23T10:43:37.407Z,9.03
2018-08-23T10:46:06.776Z,9.77
2018-08-23T10:48:35.506Z,8.40
2018-08-23T10:51:03.691Z,10.50
2018-08-23T10:53:34.124Z,9.00
2018-08-23T10:56:02.573Z,8.30
2018-08-23T10:58:31.452Z,7.90
2018-08-23T11:01:01.423Z,7.80
2018-08-23T11:03:29.925Z,7.47
2018-08-23T11:05:58.132Z,7.53
2018-08-23T11:08:29.240Z,8.35
2018-08-23T11:11:02.639Z,7.00
2018-08-23T11:13:36.190Z,6.53
2018-08-23T11:16:09.846Z,6.47
2018-08-23T11:18:46.319Z,8.03
2018-08-23T11:21:15.674Z,7.90
2018-08-23T11:23:44.453Z,6.50
2018-08-23T11:26:16.676Z,6.60
2018-08-23T11:28:45.113Z,6.67
2018-08-23T11:31:18.415Z,6.33
2018-08-23T11:33:46.712Z,6.30
2018-08-23T11:36:15.117Z,4.92
2018-08-23T11:38:43.207Z,5.00
2018-08-23T11:41:11.434Z,4.83
2018-08-23T11:43:40.425Z,4.75
2018-08-23T11:46:14.614Z,4.33
2018-08-23T11:48:44.053Z,4.00
2018-08-23T11:51:13.033Z,3.60
2018-08-23T11:53:41.746Z,3.90
2018-08-23T11:56:10.594Z,3.90
2018-08-23T11:58:38.801Z,3.30
2018-08-23T12:01:14.163Z,3.20
2018-08-23T12:03:42.461Z,3.50
2018-08-23T12:06:11.642Z,4.07
2018-08-23T12:08:41.002Z,3.60
2018-08-23T12:11:09.260Z,3.43
2018-08-23T12:13:37.439Z,3.67
2018-08-23T12:16:10.783Z,3.30
2018-08-23T12:18:39.437Z,3.70
2018-08-23T12:21:07.748Z,3.73
2018-08-23T12:23:36.964Z,3.45
2018-08-23T12:26:05.257Z,3.20
2018-08-23T12:28:46.645Z,4.97
2018-08-23T12:31:15.071Z,4.30
2018-08-23T12:33:43.581Z,3.50
2018-08-23T12:36:12.194Z,4.03
2018-08-23T12:38:47.065Z,3.95
2018-08-23T12:41:20.503Z,3.22
2018-08-23T12:43:50.186Z,3.70
2018-08-23T12:46:18.435Z,3.52
2018-08-23T12:48:46.854Z,4.25
2018-08-23T12:51:14.981Z,4.87
2018-08-23T12:53:43.089Z,4.40
2018-08-23T12:56:11.277Z,4.35
2018-08-23T12:58:39.377Z,4.67
2018-08-23T13:01:07.528Z,4.40
2018-08-23T13:03:35.646Z,4.47
2018-08-23T13:06:03.876Z,4.37
2018-08-23T13:08:32.064Z,4.20
2018-08-23T13:11:00.265Z,3.80
2018-08-23T13:13:28.615Z,3.95
2018-08-23T13:15:56.838Z,3.80
2018-08-23T13:18:25.108Z,3.90
2018-08-23T13:20:53.291Z,3.72
2018-08-23T13:23:21.417Z,3.12
2018-08-23T13:25:54.764Z,3.70
2018-08-23T13:28:26.267Z,3.00
2018-08-23T13:30:54.457Z,3.40
2018-08-23T13:33:23.232Z,2.53
2018-08-23T13:35:51.474Z,2.33
2018-08-23T13:38:20.119Z,2.05
2018-08-23T13:40:48.332Z,1.98
2018-08-23T13:43:16.937Z,2.43
2018-08-23T13:45:45.432Z,1.72
2018-08-23T13:48:13.861Z,1.80
2018-08-23T13:50:43.040Z,1.90
2018-08-23T13:53:11.204Z,2.17
2018-08-23T13:55:39.370Z,1.87
2018-08-23T13:58:08.077Z,2.25
2018-08-23T14:00:39.019Z,2.30
2018-08-23T14:03:07.993Z,1.90
2018-08-23T14:05:36.510Z,2.00
2018-08-23T14:08:04.685Z,1.98
2018-08-23T14:10:32.821Z,1.92
2018-08-23T14:13:01.403Z,1.93
2018-08-23T14:15:35.364Z,1.62
2018-08-23T14:18:04.176Z,1.70
2018-08-23T14:20:32.326Z,1.85
2018-08-23T14:23:00.992Z,2.10
2018-08-23T14:25:29.134Z,1.97
2018-08-23T14:27:57.249Z,2.00
2018-08-23T14:30:25.420Z,1.90
2018-08-23T14:32:54.262Z,2.07
2018-08-23T14:35:22.428Z,1.70
2018-08-23T14:37:50.596Z,2.20
2018-08-23T14:40:19.266Z,2.10
2018-08-23T14:42:47.355Z,1.92
2018-08-23T14:45:19.812Z,2.00
2018-08-23T14:47:53.494Z,2.67
2018-08-23T14:50:21.601Z,2.20
2018-08-23T14:52:49.830Z,2.23
2018-08-23T14:55:23.333Z,2.50
2018-08-23T14:57:51.589Z,2.53
2018-08-23T15:00:19.765Z,2.30
2018-08-23T15:02:48.623Z,2.37
2018-08-23T15:05:16.770Z,2.30
2018-08-23T15:07:44.948Z,2.67
2018-08-23T15:10:13.063Z,2.50
2018-08-23T15:12:41.394Z,2.40
2018-08-23T15:15:09.567Z,3.20
2018-08-23T15:17:37.858Z,3.20
2018-08-23T15:20:06.385Z,3.20
2018-08-23T15:22:34.524Z,2.80
2018-08-23T15:25:03.172Z,2.92
2018-08-23T15:27:33.687Z,2.63
2018-08-23T15:30:03.044Z,2.47
2018-08-23T15:32:31.226Z,2.67
2018-08-23T15:34:59.410Z,2.83
2018-08-23T15:37:28.199Z,2.40
2018-08-23T15:40:01.040Z,3.10
2018-08-23T15:42:29.241Z,2.70
2018-08-23T15:44:57.477Z,2.90
2018-08-23T15:47:26.521Z,2.80
2018-08-23T15:49:54.730Z,3.02
2018-08-23T15:52:22.858Z,2.62
2018-08-23T15:54:51.116Z,2.90
2018-08-23T15:57:19.248Z,2.70
2018-08-23T15:59:47.309Z,2.76
2018-08-23T16:02:15.467Z,2.72
2018-08-23T16:04:43.642Z,2.58
2018-08-23T16:07:11.742Z,2.90
2018-08-23T16:09:39.887Z,2.35
2018-08-23T16:12:07.991Z,3.08
2018-08-23T16:14:36.124Z,2.40
2018-08-23T16:17:09.672Z,2.80
2018-08-23T16:19:44.412Z,2.70
2018-08-23T16:22:13.493Z,2.47
2018-08-23T16:24:42.491Z,3.10
2018-08-23T16:27:12.323Z,2.75
2018-08-23T16:29:45.834Z,2.98
2018-08-23T16:32:21.124Z,3.17
2018-08-23T16:34:50.177Z,2.73
2018-08-23T16:37:19.260Z,3.58
2018-08-23T16:39:47.489Z,2.60
2018-08-23T16:42:15.591Z,2.80
2018-08-23T16:44:44.075Z,2.60
2018-08-23T16:47:12.427Z,3.00
2018-08-23T16:49:41.412Z,2.70
2018-08-23T16:52:10.838Z,2.90
2018-08-23T16:54:39.972Z,2.60
2018-08-23T16:57:09.031Z,2.93
2018-08-23T16:59:39.215Z,2.83
2018-08-23T17:02:09.357Z,3.20
2018-08-23T17:04:44.638Z,2.87
2018-08-23T17:07:15.240Z,3.23
2018-08-23T17:09:44.982Z,2.90
2018-08-23T17:12:14.899Z,3.20
2018-08-23T17:14:43.988Z,2.47
2018-08-23T17:17:18.420Z,2.87
2018-08-23T17:19:47.234Z,3.30
2018-08-23T17:22:15.494Z,3.30
2018-08-23T17:24:44.652Z,3.10
2018-08-23T17:27:12.814Z,3.20
2018-08-23T17:29:41.996Z,3.20
2018-08-23T17:32:10.382Z,3.40
2018-08-23T17:34:38.795Z,2.70
2018-08-23T17:37:06.973Z,3.30
2018-08-23T17:39:35.175Z,3.20
2018-08-23T17:42:03.302Z,3.47
2018-08-23T17:44:31.435Z,3.70
2018-08-23T17:46:59.548Z,3.70
2018-08-23T17:49:27.799Z,3.60
2018-08-23T17:51:56.162Z,3.60
2018-08-23T17:54:24.407Z,3.40
2018-08-23T17:56:52.538Z,3.40
2018-08-23T17:59:20.617Z,3.33
2018-08-23T18:01:48.810Z,2.83
2018-08-23T18:04:17.122Z,3.60
2018-08-23T18:06:45.245Z,3.27
2018-08-23T18:09:14.062Z,2.97
2018-08-23T18:11:42.650Z,3.73
2018-08-23T18:14:10.992Z,3.37
2018-08-23T18:16:44.494Z,3.57
2018-08-23T18:19:14.425Z,3.70
2018-08-23T18:21:42.923Z,3.73
2018-08-23T18:24:11.310Z,3.43
2018-08-23T18:26:39.425Z,4.30
2018-08-23T18:29:07.601Z,3.60
2018-08-23T18:31:36.240Z,3.10
2018-08-23T18:34:04.624Z,3.27
2018-08-23T18:36:32.803Z,3.70
2018-08-23T18:39:01.781Z,3.80
2018-08-23T18:41:30.681Z,3.27
2018-08-23T18:43:59.637Z,3.23
2018-08-23T18:46:28.951Z,3.70
2018-08-23T18:48:59.991Z,3.92
2018-08-23T18:51:30.544Z,4.30
2018-08-23T18:54:00.750Z,6.92
2018-08-23T18:56:30.711Z,7.37
2018-08-23T18:59:03.553Z,6.47
2018-08-23T19:49:08.166Z,5.87
2018-08-23T19:51:36.669Z,5.83
2018-08-23T19:54:05.608Z,5.20
2018-08-23T19:56:33.947Z,7.27
2018-08-23T19:59:02.221Z,7.13
2018-08-23T20:01:30.335Z,7.53
2018-08-23T20:03:58.470Z,5.40
2018-08-23T20:06:26.602Z,4.83
2018-08-23T20:08:54.658Z,7.00
2018-08-23T20:11:22.837Z,9.83
2018-08-23T20:13:51.021Z,7.45
2018-08-23T20:16:19.693Z,6.83
2018-08-23T20:18:47.960Z,5.40
2018-08-23T20:21:16.226Z,6.30
2018-08-23T20:23:44.318Z,4.90
2018-08-23T20:26:13.432Z,6.45
2018-08-23T20:28:41.539Z,6.20
2018-08-23T20:31:09.672Z,6.20
2018-08-23T20:33:37.815Z,5.23
2018-08-23T20:36:05.937Z,5.70
2018-08-23T20:38:34.426Z,6.83
2018-08-23T20:41:02.510Z,5.47
2018-08-23T20:43:30.584Z,5.67
2018-08-23T20:45:58.670Z,6.20
2018-08-23T20:48:26.849Z,5.40
2018-08-23T20:50:55.016Z,5.37
2018-08-23T20:53:23.077Z,4.75
2018-08-23T20:55:51.153Z,5.28
2018-08-23T20:58:19.337Z,4.90
2018-08-23T21:00:47.399Z,4.60
2018-08-23T21:03:15.540Z,5.17
2018-08-23T21:05:43.685Z,5.30
2018-08-23T21:08:11.791Z,5.27
2018-08-23T21:10:39.891Z,5.50
2018-08-23T21:13:08.073Z,5.47
2018-08-23T21:15:39.175Z,5.60
2018-08-23T21:18:09.266Z,5.50
2018-08-23T21:20:37.418Z,4.53
2018-08-23T21:23:05.556Z,5.40
2018-08-23T21:25:33.661Z,4.80
2018-08-23T21:28:02.364Z,5.63
2018-08-23T21:30:30.478Z,4.40
2018-08-23T21:32:58.580Z,5.25
2018-08-23T21:35:26.748Z,4.83
2018-08-23T21:37:55.103Z,5.00
2018-08-23T21:40:23.242Z,5.10
2018-08-23T21:42:52.181Z,5.07
2018-08-23T21:45:20.562Z,4.90
2018-08-23T21:47:49.102Z,5.65
2018-08-23T21:50:17.435Z,5.15
2018-08-23T21:52:45.568Z,5.27
2018-08-23T21:55:13.737Z,5.43
2018-08-23T21:57:42.901Z,4.70
2018-08-23T22:00:11.456Z,4.50
2018-08-23T22:02:39.503Z,4.93
2018-08-23T22:05:08.027Z,5.27
2018-08-23T22:07:36.071Z,5.57
2018-08-23T22:10:04.184Z,5.93
2018-08-23T22:12:32.214Z,7.83
2018-08-23T22:15:00.364Z,7.77
2018-08-23T22:17:28.434Z,7.40
2018-08-23T22:19:56.655Z,5.73
2018-08-23T22:22:24.708Z,6.22
2018-08-23T22:24:52.753Z,5.90
2018-08-23T22:27:20.848Z,5.70
2018-08-23T22:29:48.894Z,5.90
2018-08-23T22:32:17.991Z,5.63
2018-08-23T22:34:46.131Z,5.07
2018-08-23T22:37:14.790Z,5.13
2018-08-23T22:39:43.248Z,5.60
2018-08-23T22:42:11.362Z,6.40
2018-08-23T22:44:39.409Z,5.10
2018-08-23T22:47:07.482Z,5.30
2018-08-23T22:49:35.575Z,4.83
2018-08-23T22:52:03.694Z,5.37
2018-08-23T22:54:31.994Z,6.07
2018-08-23T22:57:00.292Z,5.78
2018-08-23T22:59:28.389Z,6.13
2018-08-23T23:01:56.497Z,5.92
2018-08-23T23:04:27.342Z,5.60
2018-08-23T23:06:56.555Z,5.95
2018-08-23T23:09:24.595Z,6.00
2018-08-23T23:11:52.712Z,6.30
2018-08-23T23:14:20.783Z,6.15
2018-08-23T23:16:53.549Z,6.20
2018-08-23T23:19:22.083Z,7.75
2018-08-23T23:21:50.311Z,6.70
2018-08-23T23:24:23.845Z,6.12
2018-08-23T23:26:51.908Z,19.23
2018-08-23T23:29:20.099Z,6.70
2018-08-23T23:31:48.142Z,6.40
2018-08-23T23:34:16.792Z,6.93
2018-08-23T23:36:44.872Z,9.57
2018-08-23T23:39:13.415Z,7.60
2018-08-23T23:41:41.476Z,7.93
2018-08-23T23:44:10.046Z,8.50
2018-08-23T23:46:38.552Z,7.70
2018-08-23T23:49:07.107Z,7.40
2018-08-23T23:51:35.222Z,8.30
2018-08-23T23:54:03.524Z,7.93
2018-08-23T23:56:31.841Z,7.73
2018-08-23T23:58:59.882Z,7.80
